createdAt,value
2017-10-24T00:02:02.219Z,20.77
2017-10-24T00:04:29.726Z,20.33
2017-10-24T00:06:57.233Z,21.10
2017-10-24T00:09:24.745Z,20.30
2017-10-24T00:11:52.554Z,19.97
2017-10-24T00:14:20.140Z,20.27
2017-10-24T00:16:47.896Z,20.77
2017-10-24T00:19:15.424Z,20.00
2017-10-24T00:21:42.928Z,21.97
2017-10-24T00:24:10.577Z,19.37
2017-10-24T00:26:38.096Z,20.80
2017-10-24T00:29:05.604Z,20.80
2017-10-24T00:31:33.130Z,20.60
2017-10-24T00:34:00.685Z,20.70
2017-10-24T00:36:28.196Z,20.13
2017-10-24T00:38:55.721Z,22.17
2017-10-24T00:41:23.225Z,20.77
2017-10-24T00:43:51.504Z,21.87
2017-10-24T00:46:19.017Z,20.20
2017-10-24T00:48:47.283Z,21.13
2017-10-24T00:51:14.797Z,21.37
2017-10-24T00:53:42.309Z,22.40
2017-10-24T00:56:10.339Z,22.13
2017-10-24T00:58:38.448Z,21.67
2017-10-24T01:01:05.960Z,21.73
2017-10-24T01:03:34.241Z,21.67
2017-10-24T01:06:01.744Z,21.47
2017-10-24T01:08:29.254Z,21.73
2017-10-24T01:10:56.864Z,22.10
2017-10-24T01:13:24.377Z,22.17
2017-10-24T01:15:51.892Z,21.60
2017-10-24T01:18:19.508Z,23.07
2017-10-24T01:20:47.016Z,22.53
2017-10-24T01:23:14.626Z,21.53
2017-10-24T01:25:42.121Z,23.60
2017-10-24T01:28:09.633Z,23.23
2017-10-24T01:30:37.131Z,21.73
2017-10-24T01:33:04.760Z,22.03
2017-10-24T01:35:32.350Z,21.77
2017-10-24T01:37:59.865Z,23.90
2017-10-24T01:40:27.369Z,22.80
2017-10-24T01:42:54.881Z,22.57
2017-10-24T01:45:22.394Z,24.60
2017-10-24T01:47:49.906Z,25.90
2017-10-24T01:50:17.761Z,24.37
2017-10-24T01:52:45.283Z,24.80
2017-10-24T01:55:12.789Z,23.63
2017-10-24T01:57:40.320Z,23.70
2017-10-24T02:00:07.846Z,24.00
2017-10-24T02:02:35.352Z,25.33
2017-10-24T02:05:02.921Z,24.07
2017-10-24T02:07:30.510Z,25.43
2017-10-24T02:09:58.076Z,25.93
2017-10-24T02:12:25.580Z,25.57
2017-10-24T02:14:53.105Z,23.17
2017-10-24T02:17:21.383Z,23.30
2017-10-24T02:19:49.023Z,25.77
2017-10-24T02:22:16.550Z,25.43
2017-10-24T02:24:44.057Z,26.67
2017-10-24T02:27:11.689Z,24.13
2017-10-24T02:29:39.204Z,23.50
2017-10-24T02:32:06.912Z,23.27
2017-10-24T02:34:34.432Z,25.37
2017-10-24T02:37:02.005Z,23.93
2017-10-24T02:39:29.504Z,25.50
2017-10-24T02:41:57.020Z,24.67
2017-10-24T02:44:24.524Z,25.23
2017-10-24T02:46:52.037Z,24.43
2017-10-24T02:49:19.901Z,23.60
2017-10-24T02:51:47.422Z,23.90
2017-10-24T02:54:14.916Z,25.77
2017-10-24T02:56:42.425Z,23.47
2017-10-24T02:59:10.057Z,24.10
2017-10-24T03:01:37.586Z,24.73
2017-10-24T03:04:05.093Z,23.97
2017-10-24T03:06:32.836Z,21.40
2017-10-24T03:09:00.333Z,22.87
2017-10-24T03:11:27.848Z,23.13
2017-10-24T03:13:55.508Z,21.80
2017-10-24T03:16:23.920Z,21.97
2017-10-24T03:18:51.528Z,21.20
2017-10-24T03:21:19.024Z,22.10
2017-10-24T03:23:46.538Z,22.37
2017-10-24T03:26:14.068Z,22.47
2017-10-24T03:28:42.454Z,22.10
2017-10-24T03:31:10.141Z,21.27
2017-10-24T03:33:37.928Z,21.83
2017-10-24T03:36:05.441Z,20.80
2017-10-24T03:38:32.953Z,20.00
2017-10-24T03:41:00.623Z,21.87
2017-10-24T03:43:28.122Z,19.37
2017-10-24T03:45:55.788Z,19.80
2017-10-24T03:48:23.307Z,21.60
2017-10-24T03:50:50.810Z,19.43
2017-10-24T03:53:18.514Z,19.80
2017-10-24T03:55:46.036Z,20.73
2017-10-24T03:58:13.703Z,20.60
2017-10-24T04:00:41.358Z,21.60
2017-10-24T04:03:08.853Z,23.20
2017-10-24T04:05:36.389Z,22.97
2017-10-24T04:08:03.885Z,26.97
2017-10-24T04:10:31.392Z,26.80
2017-10-24T04:12:59.192Z,26.67
2017-10-24T04:15:26.825Z,30.20
2017-10-24T04:17:54.600Z,26.23
2017-10-24T04:20:22.108Z,28.67
2017-10-24T04:22:50.256Z,27.07
2017-10-24T04:25:17.861Z,30.67
2017-10-24T04:27:45.389Z,26.60
2017-10-24T04:30:13.108Z,23.90
2017-10-24T04:32:40.644Z,25.87
2017-10-24T04:35:08.140Z,23.50
2017-10-24T04:37:35.645Z,24.13
2017-10-24T04:40:03.183Z,23.70
2017-10-24T04:42:30.702Z,25.30
2017-10-24T04:44:58.225Z,22.00
2017-10-24T04:47:25.920Z,24.30
2017-10-24T04:49:53.734Z,25.23
2017-10-24T04:52:21.477Z,25.60
2017-10-24T04:54:49.036Z,26.67
2017-10-24T04:57:16.661Z,28.77
2017-10-24T04:59:44.433Z,32.37
2017-10-24T05:02:11.932Z,29.03
2017-10-24T05:04:39.444Z,30.00
2017-10-24T05:07:07.108Z,24.77
2017-10-24T05:09:34.639Z,28.10
2017-10-24T05:12:02.309Z,27.20
2017-10-24T05:14:29.800Z,31.30
2017-10-24T05:16:57.314Z,28.40
2017-10-24T05:19:24.873Z,23.73
2017-10-24T05:21:52.474Z,24.40
2017-10-24T05:24:20.017Z,21.37
2017-10-24T05:26:47.504Z,22.67
2017-10-24T05:29:15.052Z,20.90
2017-10-24T05:31:42.607Z,21.87
2017-10-24T05:34:10.104Z,21.47
2017-10-24T05:36:37.629Z,22.93
2017-10-24T05:39:05.146Z,22.77
2017-10-24T05:41:32.856Z,20.90
2017-10-24T05:44:00.360Z,28.17
2017-10-24T05:46:27.956Z,21.83
2017-10-24T05:48:55.477Z,23.30
2017-10-24T05:51:22.987Z,25.50
2017-10-24T05:53:50.588Z,23.97
2017-10-24T05:56:18.261Z,25.53
2017-10-24T05:58:45.752Z,27.40
2017-10-24T06:01:13.273Z,25.20
2017-10-24T06:03:40.828Z,27.67
2017-10-24T06:06:08.344Z,26.60
2017-10-24T06:08:35.855Z,29.13
2017-10-24T06:11:03.415Z,32.67
2017-10-24T06:13:30.928Z,27.37
2017-10-24T06:15:58.437Z,25.63
2017-10-24T06:18:25.952Z,23.40
2017-10-24T06:20:54.215Z,22.40
2017-10-24T06:23:21.833Z,23.70
2017-10-24T06:25:49.336Z,23.97
2017-10-24T06:28:16.860Z,24.97
2017-10-24T06:30:44.800Z,25.40
2017-10-24T06:33:12.358Z,26.87
2017-10-24T06:35:39.865Z,23.97
2017-10-24T06:38:07.376Z,27.27
2017-10-24T06:40:34.884Z,24.30
2017-10-24T06:43:02.518Z,26.00
2017-10-24T06:45:30.023Z,27.93
2017-10-24T06:47:57.536Z,28.37
2017-10-24T06:50:25.040Z,23.50
2017-10-24T06:52:52.561Z,25.70
2017-10-24T06:55:20.064Z,29.20
2017-10-24T06:57:47.888Z,28.93
2017-10-24T07:00:15.637Z,25.97
2017-10-24T07:02:43.144Z,28.63
2017-10-24T07:05:10.660Z,28.00
2017-10-24T07:07:38.171Z,35.53
2017-10-24T07:10:05.704Z,29.60
2017-10-24T07:12:33.210Z,32.97
2017-10-24T07:15:00.736Z,27.47
2017-10-24T07:17:28.439Z,27.80
2017-10-24T07:19:55.955Z,26.40
2017-10-24T07:22:23.665Z,34.17
2017-10-24T07:24:51.179Z,30.63
2017-10-24T07:27:18.691Z,28.83
2017-10-24T07:29:46.248Z,29.20
2017-10-24T07:32:13.768Z,28.43
2017-10-24T07:34:41.272Z,29.77
2017-10-24T07:37:09.013Z,25.30
2017-10-24T07:39:36.776Z,25.80
2017-10-24T07:42:04.536Z,28.37
2017-10-24T07:44:32.060Z,23.70
2017-10-24T07:46:59.591Z,31.20
2017-10-24T07:49:27.398Z,24.20
2017-10-24T07:51:54.935Z,24.97
2017-10-24T07:54:23.082Z,23.17
2017-10-24T07:56:50.812Z,25.50
2017-10-24T07:59:18.330Z,31.30
2017-10-24T08:01:46.033Z,26.47
2017-10-24T08:04:13.796Z,20.97
2017-10-24T08:06:41.592Z,23.77
2017-10-24T08:09:09.119Z,21.00
2017-10-24T08:11:36.780Z,19.67
2017-10-24T08:14:04.283Z,23.77
2017-10-24T08:16:31.825Z,22.00
2017-10-24T08:18:59.332Z,20.03
2017-10-24T08:21:26.946Z,22.37
2017-10-24T08:23:54.448Z,21.57
2017-10-24T08:26:21.947Z,19.77
2017-10-24T08:28:49.775Z,20.40
2017-10-24T08:31:17.320Z,22.03
2017-10-24T08:33:44.821Z,18.53
2017-10-24T08:36:12.549Z,19.60
2017-10-24T08:38:40.055Z,20.77
2017-10-24T08:41:07.568Z,20.33
2017-10-24T08:43:35.248Z,19.87
2017-10-24T08:46:03.026Z,23.30
2017-10-24T08:48:30.520Z,21.20
2017-10-24T08:50:58.040Z,23.40
2017-10-24T08:53:25.687Z,21.73
2017-10-24T08:55:53.451Z,21.40
2017-10-24T08:58:21.219Z,21.30
2017-10-24T09:00:48.740Z,21.30
2017-10-24T09:03:16.268Z,24.47
2017-10-24T09:06:09.084Z,23.80
2017-10-24T09:11:43.203Z,24.60
2017-10-24T09:14:14.304Z,24.30
2017-10-24T09:16:49.328Z,23.50
2017-10-24T09:19:43.553Z,24.43
2017-10-24T09:22:20.751Z,27.10
2017-10-24T09:24:48.399Z,26.70
2017-10-24T09:27:15.919Z,27.87
2017-10-24T09:29:43.411Z,30.23
2017-10-24T09:32:10.916Z,28.43
2017-10-24T09:34:38.427Z,28.93
2017-10-24T09:37:06.133Z,28.10
2017-10-24T09:39:33.641Z,28.30
2017-10-24T09:42:01.149Z,27.20
2017-10-24T09:44:28.668Z,29.30
2017-10-24T09:46:56.207Z,29.50
2017-10-24T09:49:24.014Z,29.50
2017-10-24T09:51:51.525Z,31.73
2017-10-24T09:54:19.230Z,34.53
2017-10-24T09:56:46.869Z,32.33
2017-10-24T09:59:16.147Z,30.27
2017-10-24T10:01:47.756Z,34.97
2017-10-24T10:04:16.372Z,30.00
2017-10-24T10:07:07.656Z,30.37
2017-10-24T10:09:35.483Z,37.50
2017-10-24T10:12:03.032Z,33.60
2017-10-24T10:14:30.705Z,33.17
2017-10-24T10:16:58.204Z,35.73
2017-10-24T10:19:25.747Z,41.70
2017-10-24T10:21:54.127Z,35.10
2017-10-24T10:24:24.559Z,38.27
2017-10-24T10:26:52.078Z,42.40
2017-10-24T10:29:19.592Z,46.10
2017-10-24T10:31:47.323Z,39.80
2017-10-24T10:34:14.869Z,38.87
2017-10-24T10:36:42.472Z,37.23
2017-10-24T10:39:09.997Z,39.10
2017-10-24T10:41:37.503Z,38.80
2017-10-24T10:44:05.220Z,41.90
2017-10-24T10:46:32.984Z,38.27
2017-10-24T10:49:00.487Z,37.63
2017-10-24T10:51:28.040Z,41.77
2017-10-24T10:53:55.660Z,38.13
2017-10-24T10:56:23.428Z,38.77
2017-10-24T10:58:50.940Z,37.57
2017-10-24T11:01:18.453Z,37.90
2017-10-24T11:03:46.065Z,37.17
2017-10-24T11:06:13.572Z,36.40
2017-10-24T11:08:41.088Z,37.60
2017-10-24T11:11:08.779Z,36.90
2017-10-24T11:13:36.287Z,35.63
2017-10-24T11:16:03.812Z,37.40
2017-10-24T11:18:31.315Z,34.43
2017-10-24T11:20:58.881Z,34.80
2017-10-24T11:23:26.380Z,34.67
2017-10-24T11:25:54.128Z,33.73
2017-10-24T11:28:21.633Z,32.93
2017-10-24T11:30:49.250Z,33.70
2017-10-24T11:33:16.757Z,33.73
2017-10-24T11:35:44.264Z,33.03
2017-10-24T11:38:11.772Z,31.67
2017-10-24T11:40:40.045Z,34.07
2017-10-24T11:43:07.551Z,32.70
2017-10-24T11:45:35.060Z,30.47
2017-10-24T11:48:02.771Z,32.03
2017-10-24T11:50:30.385Z,34.60
2017-10-24T11:52:58.660Z,32.93
2017-10-24T11:55:26.173Z,32.33
2017-10-24T11:57:53.683Z,31.70
2017-10-24T12:00:21.188Z,28.43
2017-10-24T12:02:48.712Z,28.40
2017-10-24T12:05:16.213Z,29.43
2017-10-24T12:07:43.725Z,27.73
2017-10-24T12:10:11.419Z,33.37
2017-10-24T12:12:38.948Z,27.63
2017-10-24T12:15:06.448Z,27.97
2017-10-24T12:17:33.963Z,32.43
2017-10-24T12:20:01.487Z,26.50
2017-10-24T12:22:29.186Z,25.97
2017-10-24T12:24:56.677Z,28.40
2017-10-24T12:27:24.192Z,24.00
2017-10-24T12:29:51.697Z,25.00
2017-10-24T12:32:20.164Z,24.87
2017-10-24T12:34:49.205Z,30.97
2017-10-24T12:37:17.497Z,26.80
2017-10-24T12:39:45.013Z,26.70
2017-10-24T12:42:12.528Z,25.03
2017-10-24T12:44:57.732Z,24.53
2017-10-24T12:47:26.223Z,20.03
2017-10-24T12:50:10.452Z,22.93
2017-10-24T12:52:37.964Z,21.43
2017-10-24T12:55:06.232Z,19.40
2017-10-24T12:57:34.160Z,17.50
2017-10-24T13:00:02.504Z,20.73
2017-10-24T13:02:30.053Z,18.83
2017-10-24T13:04:57.632Z,19.30
2017-10-24T13:07:25.128Z,17.93
2017-10-24T13:09:52.640Z,17.57
2017-10-24T13:12:21.029Z,20.87
2017-10-24T13:14:48.624Z,17.90
2017-10-24T13:17:16.137Z,18.90
2017-10-24T13:19:43.825Z,15.90
2017-10-24T13:22:11.591Z,20.00
2017-10-24T13:24:39.092Z,18.20
2017-10-24T13:27:06.593Z,20.40
2017-10-24T13:29:34.230Z,16.10
2017-10-24T13:32:01.728Z,19.70
2017-10-24T13:34:29.356Z,17.80
2017-10-24T13:36:57.086Z,17.87
2017-10-24T13:39:25.625Z,17.20
2017-10-24T13:41:53.120Z,17.23
2017-10-24T13:44:21.337Z,19.43
2017-10-24T13:46:48.875Z,16.87
2017-10-24T13:49:16.401Z,17.70
2017-10-24T13:51:44.101Z,17.07
2017-10-24T13:54:11.599Z,18.80
2017-10-24T13:56:39.237Z,16.40
2017-10-24T13:59:06.739Z,17.13
2017-10-24T14:01:34.244Z,17.67
2017-10-24T14:04:01.754Z,17.47
2017-10-24T14:06:47.932Z,17.30
2017-10-24T14:09:36.119Z,20.00
2017-10-24T14:12:03.900Z,17.93
2017-10-24T14:14:31.409Z,16.60
2017-10-24T14:16:59.673Z,16.53
2017-10-24T14:19:27.188Z,18.63
2017-10-24T14:21:55.697Z,17.67
2017-10-24T14:24:23.213Z,19.73
2017-10-24T14:26:50.725Z,19.13
2017-10-24T14:29:18.588Z,17.57
2017-10-24T14:31:46.113Z,20.57
2017-10-24T14:34:13.618Z,19.47
2017-10-24T14:36:41.268Z,20.80
2017-10-24T14:39:08.811Z,21.60
2017-10-24T14:41:36.575Z,20.77
2017-10-24T14:44:04.072Z,23.13
2017-10-24T14:46:31.590Z,23.30
2017-10-24T14:48:59.092Z,23.10
2017-10-24T14:51:27.403Z,23.17
2017-10-24T14:53:54.906Z,23.80
2017-10-24T14:56:22.520Z,22.37
2017-10-24T14:58:50.020Z,22.53
2017-10-24T15:01:17.792Z,24.37
2017-10-24T15:03:45.497Z,21.10
2017-10-24T15:06:13.027Z,18.50
2017-10-24T15:08:40.689Z,20.83
2017-10-24T15:11:08.382Z,16.57
2017-10-24T15:13:35.872Z,22.00
2017-10-24T15:16:03.377Z,20.23
2017-10-24T15:18:30.888Z,22.83
2017-10-24T15:20:58.397Z,23.13
2017-10-24T15:23:25.904Z,24.83
2017-10-24T15:25:53.408Z,25.83
2017-10-24T15:28:20.919Z,25.03
2017-10-24T15:30:48.428Z,23.10
2017-10-24T15:33:15.938Z,22.70
2017-10-24T15:35:43.871Z,23.60
2017-10-24T15:38:11.451Z,23.47
2017-10-24T15:40:38.957Z,22.17
2017-10-24T15:43:06.472Z,25.43
2017-10-24T15:45:34.088Z,23.80
2017-10-24T15:48:01.596Z,23.20
2017-10-24T15:50:29.105Z,25.10
2017-10-24T15:52:56.820Z,22.57
2017-10-24T15:55:24.324Z,23.07
2017-10-24T15:57:52.019Z,22.40
2017-10-24T16:00:19.531Z,24.30
2017-10-24T16:02:47.118Z,24.03
2017-10-24T16:05:14.600Z,23.90
2017-10-24T16:07:42.161Z,24.07
2017-10-24T16:10:09.672Z,27.27
2017-10-24T16:12:37.196Z,24.90
2017-10-24T16:15:04.837Z,25.40
2017-10-24T16:17:32.347Z,24.70
2017-10-24T16:19:59.861Z,22.50
2017-10-24T16:22:27.518Z,24.83
2017-10-24T16:24:55.033Z,22.90
2017-10-24T16:27:22.543Z,25.30
2017-10-24T16:29:50.169Z,21.67
2017-10-24T16:32:17.655Z,24.87
2017-10-24T16:34:45.177Z,25.93
2017-10-24T16:37:12.686Z,23.77
2017-10-24T16:39:40.206Z,22.97
2017-10-24T16:42:07.772Z,25.20
2017-10-24T16:44:35.292Z,29.00
2017-10-24T16:47:02.841Z,21.97
2017-10-24T16:49:31.117Z,40.47
2017-10-24T16:51:58.625Z,27.47
2017-10-24T16:54:26.145Z,25.77
2017-10-24T16:56:53.849Z,24.70
2017-10-24T16:59:21.509Z,25.43
2017-10-24T17:01:49.012Z,24.30
2017-10-24T17:04:16.711Z,26.40
2017-10-24T17:06:44.488Z,26.27
2017-10-24T17:09:11.996Z,26.43
2017-10-24T17:11:39.499Z,23.47
2017-10-24T17:14:07.007Z,26.03
2017-10-24T17:16:35.280Z,27.60
2017-10-24T17:19:02.784Z,29.73
2017-10-24T17:21:30.636Z,25.67
2017-10-24T17:23:58.128Z,26.27
2017-10-24T17:26:25.653Z,25.93
2017-10-24T17:28:53.193Z,27.17
2017-10-24T17:31:20.704Z,25.53
2017-10-24T17:33:48.358Z,28.73
2017-10-24T17:36:15.879Z,30.00
2017-10-24T17:38:43.567Z,28.87
2017-10-24T17:41:11.083Z,29.10
2017-10-24T17:43:39.415Z,29.30
2017-10-24T17:46:06.924Z,29.40
2017-10-24T17:48:34.441Z,27.77
2017-10-24T17:51:01.978Z,30.70
2017-10-24T17:53:29.481Z,29.17
2017-10-24T17:55:56.984Z,24.53
2017-10-24T17:58:24.500Z,28.57
2017-10-24T18:00:52.012Z,30.33
2017-10-24T18:03:19.524Z,34.17
2017-10-24T18:05:47.123Z,28.60
2017-10-24T18:08:14.896Z,30.93
2017-10-24T18:10:42.673Z,28.53
2017-10-24T18:13:10.181Z,33.17
2017-10-24T18:15:37.680Z,29.90
2017-10-24T18:18:05.194Z,28.07
2017-10-24T18:20:32.713Z,33.20
2017-10-24T18:23:00.240Z,30.03
2017-10-24T18:25:28.013Z,27.77
2017-10-24T18:27:55.522Z,31.10
2017-10-24T18:30:23.037Z,29.80
2017-10-24T18:32:50.661Z,28.40
2017-10-24T18:35:18.169Z,29.20
2017-10-24T18:37:45.675Z,34.23
2017-10-24T18:40:13.189Z,32.20
2017-10-24T18:42:40.723Z,29.50
2017-10-24T18:45:08.232Z,29.70
2017-10-24T18:47:35.747Z,31.97
2017-10-24T18:50:03.269Z,30.93
2017-10-24T18:52:30.907Z,33.00
2017-10-24T18:54:58.436Z,33.30
2017-10-24T18:57:25.944Z,35.90
2017-10-24T18:59:53.452Z,40.43
2017-10-24T19:02:20.967Z,32.80
2017-10-24T19:04:48.488Z,32.63
2017-10-24T19:07:15.998Z,31.80
2017-10-24T19:09:44.135Z,33.70
2017-10-24T19:12:11.692Z,33.97
2017-10-24T19:14:39.213Z,30.73
2017-10-24T19:17:06.714Z,31.60
2017-10-24T19:19:34.225Z,30.67
2017-10-24T19:22:01.969Z,28.57
2017-10-24T19:24:29.489Z,29.17
2017-10-24T19:26:57.006Z,29.13
2017-10-24T19:29:24.524Z,25.27
2017-10-24T19:31:52.065Z,25.73
2017-10-24T19:34:19.590Z,27.10
2017-10-24T19:36:47.293Z,24.90
2017-10-24T19:39:14.851Z,26.43
2017-10-24T19:41:42.537Z,24.70
2017-10-24T19:44:10.060Z,38.63
2017-10-24T19:46:37.630Z,28.90
2017-10-24T19:49:05.119Z,23.20
2017-10-24T19:51:32.668Z,29.77
2017-10-24T19:54:00.436Z,27.10
2017-10-24T19:56:27.944Z,27.07
2017-10-24T19:58:56.177Z,25.90
2017-10-24T20:01:23.739Z,28.00
2017-10-24T20:03:51.257Z,30.23
2017-10-24T20:06:18.945Z,28.00
2017-10-24T20:08:46.709Z,28.93
2017-10-24T20:11:14.662Z,23.80
2017-10-24T20:13:42.160Z,26.70
2017-10-24T20:16:09.680Z,25.80
2017-10-24T20:18:37.183Z,25.83
2017-10-24T20:21:04.819Z,30.17
2017-10-24T20:23:32.340Z,24.47
2017-10-24T20:25:59.846Z,26.57
2017-10-24T20:28:27.361Z,28.13
2017-10-24T20:30:55.056Z,35.10
2017-10-24T20:33:22.808Z,27.13
2017-10-24T20:35:50.316Z,28.80
2017-10-24T20:38:18.515Z,27.87
2017-10-24T20:40:46.101Z,27.00
2017-10-24T20:43:13.832Z,26.87
2017-10-24T20:45:41.355Z,27.13
2017-10-24T20:48:09.060Z,29.30
2017-10-24T20:50:36.564Z,27.70
2017-10-24T20:53:04.280Z,28.53
2017-10-24T20:55:32.045Z,29.87
2017-10-24T20:57:59.532Z,32.17
2017-10-24T21:00:27.816Z,29.47
2017-10-24T21:02:56.083Z,30.60
2017-10-24T21:05:23.726Z,29.97
2017-10-24T21:07:51.224Z,31.60
2017-10-24T21:10:18.945Z,28.90
2017-10-24T21:12:46.455Z,42.13
2017-10-24T21:15:14.174Z,29.87
2017-10-24T21:17:41.683Z,32.50
2017-10-24T21:20:09.574Z,35.10
2017-10-24T21:22:37.071Z,42.50
2017-10-24T21:25:05.496Z,23.50
2017-10-24T21:27:33.560Z,31.00
2017-10-24T21:30:01.068Z,28.40
2017-10-24T21:32:28.572Z,30.60
2017-10-24T21:34:56.156Z,26.70
2017-10-24T21:37:23.721Z,30.57
2017-10-24T21:39:51.204Z,27.10
2017-10-24T21:42:19.139Z,28.37
2017-10-24T21:44:46.698Z,27.83
2017-10-24T21:47:14.189Z,25.70
2017-10-24T21:49:41.816Z,26.80
2017-10-24T21:52:09.533Z,26.27
2017-10-24T21:54:37.035Z,24.23
2017-10-24T21:57:04.624Z,24.90
2017-10-24T21:59:32.254Z,22.70
2017-10-24T22:01:59.769Z,24.63
2017-10-24T22:04:28.188Z,20.57
2017-10-24T22:06:56.400Z,22.17
2017-10-24T22:09:24.053Z,22.77
2017-10-24T22:11:51.816Z,25.23
2017-10-24T22:14:19.328Z,23.97
2017-10-24T22:16:46.828Z,23.87
2017-10-24T22:19:14.488Z,25.10
2017-10-24T22:21:42.000Z,23.60
2017-10-24T22:24:09.538Z,24.30
2017-10-24T22:26:37.048Z,26.00
2017-10-24T22:29:04.599Z,24.30
2017-10-24T22:31:32.389Z,25.43
2017-10-24T22:33:59.909Z,26.40
2017-10-24T22:36:27.584Z,23.60
2017-10-24T22:38:55.092Z,25.67
2017-10-24T22:41:22.830Z,25.90
2017-10-24T22:43:50.351Z,26.47
2017-10-24T22:46:18.047Z,25.13
2017-10-24T22:48:45.569Z,25.70
2017-10-24T22:51:13.079Z,27.73
2017-10-24T22:53:40.725Z,24.13
2017-10-24T22:56:08.361Z,27.33
2017-10-24T22:58:35.941Z,29.23
2017-10-24T23:01:03.518Z,25.73
2017-10-24T23:03:31.024Z,27.67
2017-10-24T23:05:58.544Z,28.70
2017-10-24T23:08:26.054Z,27.77
2017-10-24T23:10:53.847Z,26.83
2017-10-24T23:13:21.632Z,30.00
2017-10-24T23:15:49.351Z,28.47
2017-10-24T23:18:16.872Z,29.80
2017-10-24T23:20:44.384Z,30.17
2017-10-24T23:23:11.888Z,31.77
2017-10-24T23:25:40.161Z,29.47
2017-10-24T23:28:08.488Z,29.70
2017-10-24T23:30:36.022Z,29.37
2017-10-24T23:33:03.531Z,30.37
2017-10-24T23:35:31.169Z,29.97
2017-10-24T23:37:59.852Z,31.10
2017-10-24T23:40:27.617Z,29.40
2017-10-24T23:42:55.129Z,34.67
2017-10-24T23:45:23.634Z,32.40
2017-10-24T23:47:51.123Z,30.87
2017-10-24T23:50:18.637Z,31.03
2017-10-24T23:52:46.147Z,33.47
2017-10-24T23:55:13.664Z,30.90
2017-10-24T23:57:41.347Z,30.53
